createdAt,value
2023-01-04T04:42:35.575Z,13.80
2023-01-04T04:57:39.930Z,13.90
2023-01-04T05:13:02.620Z,13.70
2023-01-04T05:28:07.449Z,13.80
2023-01-04T05:43:13.756Z,13.60
2023-01-04T05:58:18.402Z,13.70
2023-01-04T06:13:22.862Z,13.60
2023-01-04T06:28:27.410Z,13.80
2023-01-04T06:43:31.901Z,13.60
2023-01-04T06:58:36.510Z,13.70
2023-01-04T07:13:40.882Z,13.80
2023-01-04T07:29:02.028Z,13.90
2023-01-04T07:44:07.005Z,13.90
2023-01-04T07:59:12.798Z,14.10
2023-01-04T08:14:17.234Z,14.10
2023-01-04T08:29:21.653Z,14.20
2023-01-04T08:44:27.303Z,14.10
2023-01-04T08:59:31.745Z,14.00
2023-01-04T09:14:36.460Z,14.20
2023-01-04T09:29:41.397Z,14.00
2023-01-04T10:00:20.976Z,14.40
2023-01-04T10:15:33.210Z,14.20
2023-01-04T10:30:44.454Z,14.20
2023-01-04T10:45:55.212Z,14.40
2023-01-04T11:01:05.960Z,14.40
2023-01-04T11:16:10.723Z,14.50
2023-01-04T11:31:25.539Z,14.40
2023-01-04T11:46:31.687Z,14.40
2023-01-04T12:01:37.885Z,14.30
2023-01-04T12:16:48.412Z,14.60
2023-01-04T12:31:53.990Z,14.80
2023-01-04T12:47:16.056Z,14.80
2023-01-04T13:02:23.593Z,14.80
2023-01-04T13:17:28.947Z,14.90
2023-01-04T13:32:46.959Z,14.90
2023-01-04T13:48:00.336Z,14.90
2023-01-04T14:03:18.344Z,15.10
2023-01-04T14:18:30.394Z,15.20
2023-01-04T14:33:41.537Z,15.30
2023-01-04T14:48:45.981Z,15.40
2023-01-04T15:03:50.571Z,15.30
2023-01-04T15:18:55.004Z,15.60
2023-01-04T15:34:00.129Z,15.50
2023-01-04T15:49:04.595Z,15.50
2023-01-04T16:04:09.042Z,15.20
2023-01-04T16:19:13.534Z,15.40
2023-01-04T16:34:18.088Z,15.40
2023-01-04T16:49:22.501Z,15.60
2023-01-04T17:04:27.331Z,15.60
2023-01-04T17:19:31.813Z,15.60
2023-01-04T17:34:36.265Z,15.50
2023-01-04T17:49:40.693Z,15.50
2023-01-04T18:04:45.299Z,15.50
2023-01-04T18:19:50.286Z,15.50
2023-01-04T18:34:54.747Z,15.40
2023-01-04T18:49:59.194Z,15.50
2023-01-04T19:05:03.936Z,15.70
2023-01-04T19:20:09.390Z,15.40
2023-01-04T19:35:13.982Z,15.70
2023-01-04T19:50:18.744Z,15.70
2023-01-04T20:05:23.177Z,15.60
2023-01-04T20:20:27.609Z,15.60
2023-01-04T20:35:32.291Z,15.50
2023-01-04T20:50:37.116Z,15.70
2023-01-04T21:05:42.934Z,15.60
